Time;durP1;ratioP1;P1;durP2;ratioP2;P2;SDS_P1;SDS_P2;PMS_P1;PMS_P2;Temp;Humidity;BMP_temperature;BMP_pressure;BME280_temperature;BME280_humidity;BME280_pressure;Samples;Min_cycle;Max_cycle;Signal;HPM_P1;HPM_P2
2021/05/06 00:09:26;;;;;;;1.17;0.70;;;21.70;45.80;;;;;;4975286;28;20043;-40
2021/05/06 00:14:29;;;;;;;0.80;0.63;;;21.70;45.80;;;;;;4985312;28;20050;-40
2021/05/06 00:29:43;;;;;;;0.88;0.80;;;21.70;45.80;;;;;;4987679;28;20058;-40
2021/05/06 00:31:32;;;;;;;0.90;0.80;;;21.70;45.70;;;;;;5080614;28;20169;-40
2021/05/06 00:33:54;;;;;;;1.15;0.70;;;21.70;45.80;;;;;;5113694;28;20138;-40
2021/05/06 00:36:20;;;;;;;0.55;0.55;;;21.70;45.80;;;;;;5113111;28;20054;-41
2021/05/06 00:38:56;;;;;;;1.00;0.77;;;21.70;45.80;;;;;;5115341;27;20051;-41
2021/05/06 00:44:30;;;;;;;1.05;0.52;;;21.70;45.70;;;;;;5113310;28;20079;-40
2021/05/06 00:57:30;;;;;;;1.63;0.70;;;21.70;45.70;;;;;;5114249;28;20059;-40
2021/05/06 01:05:33;;;;;;;1.13;0.80;;;21.70;45.70;;;;;;5114246;28;20065;-40
2021/05/06 01:10:33;;;;;;;0.90;0.70;;;21.70;45.70;;;;;;5113557;28;20136;-40
2021/05/06 01:13:00;;;;;;;0.70;0.70;;;21.70;45.70;;;;;;5113722;28;20047;-40
2021/05/06 01:15:27;;;;;;;1.30;0.85;;;21.70;45.70;;;;;;5111022;28;20048;-40
2021/05/06 01:17:54;;;;;;;1.00;0.88;;;21.70;45.80;;;;;;5111859;28;20058;-40
2021/05/06 01:20:21;;;;;;;0.80;0.70;;;21.70;45.70;;;;;;5112423;28;20093;-40
2021/05/06 01:22:47;;;;;;;1.33;0.80;;;21.70;45.70;;;;;;5111638;28;20384;-40
2021/05/06 01:25:15;;;;;;;0.90;0.60;;;21.70;45.70;;;;;;5112012;28;20092;-41
2021/05/06 01:32:51;;;;;;;1.08;0.70;;;21.70;45.70;;;;;;5112628;28;20495;-43
2021/05/06 01:35:27;;;;;;;1.23;0.75;;;21.70;45.70;;;;;;5111250;28;20510;-41
2021/05/06 01:40:45;;;;;;;1.10;0.60;;;21.70;45.70;;;;;;5112347;28;20445;-41
2021/05/06 01:49:28;;;;;;;1.20;0.90;;;21.70;45.70;;;;;;5057916;28;20090;-40
2021/05/06 02:00:07;;;;;;;1.05;0.70;;;21.70;45.70;;;;;;5058738;28;20468;-41
2021/05/06 02:02:35;;;;;;;1.00;0.60;;;21.60;45.60;;;;;;5058416;28;20413;-40
2021/05/06 02:05:04;;;;;;;0.68;0.60;;;21.70;45.70;;;;;;5057904;28;20036;-40
2021/05/06 02:07:31;;;;;;;1.40;0.75;;;21.70;45.70;;;;;;5058752;28;20041;-42
2021/05/06 02:09:58;;;;;;;1.10;0.80;;;21.70;45.70;;;;;;5056960;28;20044;-42
2021/05/06 02:12:25;;;;;;;0.50;0.47;;;21.70;45.70;;;;;;5058591;28;20045;-41
2021/05/06 02:14:57;;;;;;;1.55;0.80;;;21.70;45.70;;;;;;5033056;28;707556;-41
2021/05/06 02:17:23;;;;;;;0.68;0.57;;;21.70;45.70;;;;;;5058880;28;20040;-40
2021/05/06 02:19:50;;;;;;;1.05;0.80;;;21.70;45.70;;;;;;5077513;28;20035;-41
2021/05/06 02:22:19;;;;;;;0.75;0.50;;;21.70;45.70;;;;;;5111926;28;20044;-40
2021/05/06 02:24:46;;;;;;;0.43;0.43;;;21.70;45.70;;;;;;5111732;28;20548;-40
2021/05/06 02:27:13;;;;;;;0.73;0.65;;;21.70;45.60;;;;;;5112288;28;20126;-41
2021/05/06 02:29:40;;;;;;;0.63;0.60;;;21.70;45.70;;;;;;5111268;28;20044;-40
2021/05/06 02:32:08;;;;;;;0.70;0.60;;;21.70;45.70;;;;;;5112154;28;20101;-40
2021/05/06 02:34:36;;;;;;;1.20;0.57;;;21.70;45.70;;;;;;5112102;28;20138;-40
2021/05/06 02:37:03;;;;;;;0.85;0.60;;;21.70;45.60;;;;;;5111891;27;20054;-40
2021/05/06 02:39:29;;;;;;;0.90;0.70;;;21.70;45.60;;;;;;5111885;28;20063;-41
2021/05/06 02:41:56;;;;;;;0.90;0.52;;;21.60;45.60;;;;;;5111591;28;20051;-40
2021/05/06 02:44:23;;;;;;;0.77;0.70;;;21.70;45.60;;;;;;5110292;28;20047;-45
2021/05/06 02:46:50;;;;;;;1.13;0.65;;;21.70;45.60;;;;;;5112351;28;20052;-41
2021/05/06 02:49:17;;;;;;;1.10;0.70;;;21.70;45.60;;;;;;5111170;28;20044;-41
2021/05/06 02:51:49;;;;;;;0.90;0.68;;;21.70;45.60;;;;;;5110958;28;20048;-42
2021/05/06 02:54:16;;;;;;;0.80;0.60;;;21.70;45.60;;;;;;5112143;28;20503;-41
2021/05/06 03:04:44;;;;;;;0.88;0.60;;;21.70;45.60;;;;;;5110347;28;20100;-43
2021/05/06 03:07:14;;;;;;;0.90;0.60;;;21.60;45.60;;;;;;5101756;28;20036;-41
2021/05/06 03:23:02;;;;;;;0.95;0.70;;;21.60;45.60;;;;;;5111343;28;20047;-41
2021/05/06 03:25:30;;;;;;;1.00;0.60;;;21.60;45.60;;;;;;5111896;28;20047;-41
2021/05/06 03:28:05;;;;;;;0.70;0.63;;;21.70;45.60;;;;;;5110034;28;20475;-41
2021/05/06 04:22:24;;;;;;;0.90;0.70;;;21.60;45.50;;;;;;5109791;28;20113;-41
2021/05/06 04:28:03;;;;;;;1.25;0.70;;;21.60;45.50;;;;;;5111074;28;20380;-40
2021/05/06 04:35:50;;;;;;;0.65;0.60;;;21.60;45.50;;;;;;5111092;28;20996;-40
2021/05/06 04:38:21;;;;;;;0.98;0.80;;;21.70;45.60;;;;;;5109821;28;20043;-40
2021/05/06 04:54:29;;;;;;;0.80;0.60;;;21.60;45.50;;;;;;5110543;28;20096;-42
2021/05/06 05:05:00;;;;;;;0.60;0.52;;;21.70;45.50;;;;;;5108985;28;20055;-41
2021/05/06 05:07:35;;;;;;;0.55;0.40;;;21.70;45.50;;;;;;5113456;28;20039;-41
2021/05/06 05:10:19;;;;;;;0.52;0.52;;;21.70;45.50;;;;;;5113334;28;20047;-41
2021/05/06 05:21:15;;;;;;;0.98;0.80;;;21.70;45.50;;;;;;5112486;28;20047;-40
2021/05/06 05:26:11;;;;;;;0.60;0.60;;;21.70;45.40;;;;;;5113943;28;20044;-41
2021/05/06 05:28:38;;;;;;;1.02;0.70;;;21.70;45.40;;;;;;5112455;28;20635;-40
2021/05/06 05:31:06;;;;;;;0.80;0.50;;;21.70;45.40;;;;;;5114352;27;20054;-40
2021/05/06 05:33:44;;;;;;;1.00;0.60;;;21.70;45.40;;;;;;5113004;28;20056;-41
2021/05/06 05:36:18;;;;;;;0.50;0.50;;;21.70;45.40;;;;;;5112201;27;20043;-40
2021/05/06 05:38:55;;;;;;;1.05;0.60;;;21.70;45.40;;;;;;5113477;27;20043;-41
2021/05/06 05:56:53;;;;;;;1.30;0.68;;;21.70;45.40;;;;;;5111818;28;20510;-41
2021/05/06 05:59:20;;;;;;;0.95;0.68;;;21.70;45.40;;;;;;5111781;28;20048;-41
2021/05/06 06:01:48;;;;;;;0.73;0.47;;;21.70;45.40;;;;;;5113379;27;20040;-40
2021/05/06 06:04:15;;;;;;;0.88;0.70;;;21.70;45.40;;;;;;5112363;28;20050;-40
2021/05/06 06:06:42;;;;;;;0.50;0.40;;;21.70;45.40;;;;;;5112883;27;20039;-42
2021/05/06 06:09:11;;;;;;;0.80;0.60;;;21.70;45.40;;;;;;5112713;28;20047;-40
2021/05/06 06:11:37;;;;;;;1.10;0.60;;;21.70;45.40;;;;;;5110969;28;20047;-41
2021/05/06 06:14:08;;;;;;;1.10;0.80;;;21.70;45.40;;;;;;5102722;28;20059;-41
2021/05/06 06:16:40;;;;;;;0.77;0.65;;;21.70;45.40;;;;;;5112553;28;20096;-41
2021/05/06 06:19:07;;;;;;;0.63;0.55;;;21.70;45.40;;;;;;5110260;28;20055;-41
2021/05/06 06:24:01;;;;;;;0.93;0.80;;;21.70;45.40;;;;;;5111812;28;20046;-44
2021/05/06 06:26:27;;;;;;;0.73;0.50;;;21.70;45.40;;;;;;5112387;27;20043;-40
2021/05/06 06:29:02;;;;;;;1.08;0.57;;;21.70;45.40;;;;;;5112606;28;20503;-40
2021/05/06 06:31:41;;;;;;;1.17;0.70;;;21.70;45.40;;;;;;5111967;28;20051;-42
2021/05/06 06:34:08;;;;;;;1.70;0.70;;;21.70;45.40;;;;;;5111701;28;20415;-42
2021/05/06 06:36:36;;;;;;;0.80;0.70;;;21.70;45.40;;;;;;5112242;28;20058;-40
2021/05/06 06:39:04;;;;;;;0.95;0.70;;;21.70;45.40;;;;;;5111079;28;20040;-45
2021/05/06 06:41:31;;;;;;;0.60;0.60;;;21.70;45.40;;;;;;5111419;28;20046;-41
2021/05/06 06:44:00;;;;;;;0.60;0.60;;;21.70;45.40;;;;;;5100252;28;20069;-40
2021/05/06 06:46:27;;;;;;;0.70;0.65;;;21.70;45.40;;;;;;5110485;28;20092;-41
2021/05/06 06:48:54;;;;;;;0.68;0.50;;;21.70;45.40;;;;;;5112083;28;20043;-41
2021/05/06 06:51:21;;;;;;;0.73;0.60;;;21.70;45.40;;;;;;5099333;28;20048;-41
2021/05/06 06:53:48;;;;;;;1.35;0.80;;;21.70;45.40;;;;;;5111197;28;20043;-43
2021/05/06 06:56:14;;;;;;;0.82;0.57;;;21.70;45.40;;;;;;5112791;28;20048;-42
2021/05/06 06:58:41;;;;;;;0.63;0.47;;;21.70;45.40;;;;;;5111020;28;20118;-41
2021/05/06 07:01:08;;;;;;;0.40;0.40;;;21.70;45.40;;;;;;5111800;27;20043;-41
2021/05/06 07:03:35;;;;;;;0.85;0.63;;;21.70;45.60;;;;;;5099582;28;20047;-42
2021/05/06 07:06:02;;;;;;;1.13;0.60;;;21.70;45.40;;;;;;5098957;28;20043;-43
2021/05/06 07:08:36;;;;;;;0.93;0.60;;;21.70;45.40;;;;;;5111316;28;20926;-42
2021/05/06 07:11:05;;;;;;;1.13;0.70;;;21.70;45.40;;;;;;5112020;28;20043;-44
2021/05/06 07:13:32;;;;;;;0.98;0.70;;;21.70;45.40;;;;;;5109372;28;20047;-41
2021/05/06 07:16:04;;;;;;;1.42;0.75;;;21.70;45.40;;;;;;5111688;28;20043;-41
2021/05/06 07:18:32;;;;;;;0.68;0.50;;;21.70;45.30;;;;;;5110284;28;20047;-41
2021/05/06 07:21:00;;;;;;;0.90;0.60;;;21.70;45.30;;;;;;5110856;28;20043;-42
2021/05/06 07:23:28;;;;;;;0.77;0.60;;;21.70;45.30;;;;;;5111697;28;20044;-40
2021/05/06 07:26:01;;;;;;;0.90;0.60;;;21.70;45.30;;;;;;5110627;28;20043;-46
2021/05/06 07:28:38;;;;;;;1.00;0.70;;;21.70;45.30;;;;;;5100778;28;20273;-41
2021/05/06 07:31:11;;;;;;;0.65;0.47;;;21.70;45.30;;;;;;5111973;28;20449;-45
2021/05/06 07:33:43;;;;;;;1.08;0.70;;;21.70;45.30;;;;;;5109846;28;20054;-42
2021/05/06 07:36:14;;;;;;;0.50;0.50;;;21.70;45.30;;;;;;5111276;28;20135;-41
2021/05/06 07:38:45;;;;;;;0.88;0.60;;;21.70;45.30;;;;;;5111269;28;20384;-45
2021/05/06 07:41:16;;;;;;;1.08;0.57;;;21.70;45.30;;;;;;5099028;28;20039;-41
2021/05/06 07:43:46;;;;;;;0.90;0.70;;;21.70;45.30;;;;;;5110714;28;20123;-44
2021/05/06 07:46:18;;;;;;;0.40;0.40;;;21.70;45.30;;;;;;5110710;28;20047;-40
2021/05/06 07:48:51;;;;;;;0.50;0.50;;;21.70;45.30;;;;;;5110038;28;20059;-41
2021/05/06 07:51:22;;;;;;;0.80;0.57;;;21.70;45.30;;;;;;5110936;28;20054;-45
2021/05/06 07:53:53;;;;;;;1.20;0.60;;;21.80;45.40;;;;;;5109927;28;20513;-43
2021/05/06 07:56:24;;;;;;;0.80;0.63;;;21.70;45.30;;;;;;5100061;28;20113;-41
2021/05/06 07:58:51;;;;;;;0.60;0.60;;;21.80;45.40;;;;;;5110243;28;20525;-41
2021/05/06 08:01:18;;;;;;;0.52;0.50;;;21.80;45.40;;;;;;5109814;28;20039;-42
2021/05/06 08:03:45;;;;;;;0.75;0.60;;;21.80;45.40;;;;;;5100297;28;20071;-47
2021/05/06 08:06:17;;;;;;;1.38;0.63;;;21.70;45.30;;;;;;5111010;28;20487;-46
2021/05/06 08:08:44;;;;;;;0.68;0.55;;;21.70;45.30;;;;;;5108462;28;20483;-41
2021/05/06 08:11:11;;;;;;;1.02;0.60;;;21.70;45.30;;;;;;5111199;28;20403;-41
2021/05/06 08:13:38;;;;;;;0.63;0.47;;;21.80;45.40;;;;;;5109601;28;20060;-41
2021/05/06 08:16:05;;;;;;;0.93;0.50;;;21.70;45.30;;;;;;5099352;28;20047;-45
2021/05/06 08:18:31;;;;;;;0.60;0.40;;;21.80;45.40;;;;;;5111082;28;21289;-46
2021/05/06 08:20:59;;;;;;;0.50;0.50;;;21.80;45.40;;;;;;5109703;28;20055;-43
2021/05/06 08:23:26;;;;;;;0.65;0.50;;;21.80;45.30;;;;;;5098946;28;20036;-47
2021/05/06 08:25:52;;;;;;;0.93;0.60;;;21.80;45.30;;;;;;5111429;28;20047;-41
2021/05/06 08:28:39;;;;;;;0.95;0.50;;;21.80;45.30;;;;;;5110113;28;20490;-44
2021/05/06 08:31:05;;;;;;;1.23;0.60;;;21.80;45.30;;;;;;5110300;28;20425;-45
2021/05/06 08:33:32;;;;;;;0.73;0.50;;;21.80;45.30;;;;;;5110377;28;20145;-43
2021/05/06 08:35:59;;;;;;;1.00;0.82;;;21.80;45.30;;;;;;5109432;28;20084;-43
2021/05/06 08:38:25;;;;;;;1.02;0.60;;;21.80;45.30;;;;;;5110952;28;20048;-41
2021/05/06 08:40:52;;;;;;;0.80;0.60;;;21.80;45.30;;;;;;5109961;28;20490;-42
2021/05/06 08:43:20;;;;;;;0.80;0.75;;;21.80;45.40;;;;;;5114369;28;20040;-46
2021/05/06 08:45:49;;;;;;;0.70;0.50;;;21.80;45.30;;;;;;5115446;27;20452;-40
2021/05/06 08:48:16;;;;;;;0.63;0.43;;;21.80;45.30;;;;;;5113167;28;20550;-44
2021/05/06 08:50:45;;;;;;;0.82;0.60;;;21.80;45.30;;;;;;5113950;28;20043;-41
2021/05/06 08:53:13;;;;;;;0.70;0.60;;;21.80;45.30;;;;;;5115245;28;20052;-42
2021/05/06 08:55:41;;;;;;;1.17;0.77;;;21.80;45.30;;;;;;5113002;27;20127;-44
2021/05/06 08:58:12;;;;;;;0.90;0.57;;;21.80;45.30;;;;;;5113983;27;20050;-40
2021/05/06 09:00:39;;;;;;;0.95;0.55;;;21.80;45.30;;;;;;5114279;28;20044;-42
2021/05/06 09:03:06;;;;;;;1.23;0.70;;;21.80;45.30;;;;;;5112975;28;20046;-41
2021/05/06 09:05:36;;;;;;;1.75;0.65;;;21.80;45.30;;;;;;5114229;28;20043;-40
2021/05/06 09:08:08;;;;;;;0.85;0.68;;;21.80;45.30;;;;;;5113919;28;20050;-41
2021/05/06 09:10:37;;;;;;;0.60;0.47;;;21.80;45.30;;;;;;5112699;28;20074;-43
2021/05/06 09:13:24;;;;;;;0.70;0.63;;;21.80;45.30;;;;;;5113721;28;20081;-40
2021/05/06 09:15:50;;;;;;;0.90;0.73;;;21.80;45.30;;;;;;5113048;28;20043;-40
2021/05/06 09:18:36;;;;;;;0.98;0.60;;;21.80;45.30;;;;;;5102730;28;20051;-40
2021/05/06 09:21:05;;;;;;;1.10;0.52;;;21.80;45.30;;;;;;5114458;28;20073;-42
2021/05/06 09:23:33;;;;;;;1.05;0.70;;;21.80;45.20;;;;;;5113176;28;20047;-40
2021/05/06 09:26:07;;;;;;;1.08;0.70;;;21.80;45.20;;;;;;5112503;28;20043;-40
2021/05/06 09:28:35;;;;;;;1.10;0.60;;;21.80;45.30;;;;;;5114035;28;20044;-40
2021/05/06 09:31:06;;;;;;;0.75;0.57;;;21.90;45.30;;;;;;5112182;28;20059;-40
2021/05/06 09:33:39;;;;;;;1.42;0.70;;;21.80;45.20;;;;;;5112510;28;20404;-40
2021/05/06 09:36:28;;;;;;;0.77;0.60;;;21.80;45.20;;;;;;5113698;28;20096;-40
2021/05/06 09:38:56;;;;;;;1.08;0.70;;;21.80;45.20;;;;;;5112807;28;20108;-41
2021/05/06 09:41:29;;;;;;;1.23;0.60;;;21.80;45.20;;;;;;5113122;28;20088;-41
2021/05/06 09:44:10;;;;;;;1.08;0.65;;;21.80;45.20;;;;;;5114114;28;20044;-41
2021/05/06 09:46:56;;;;;;;0.75;0.70;;;21.80;45.20;;;;;;5112725;28;20123;-40
2021/05/06 09:49:25;;;;;;;0.60;0.50;;;21.80;45.20;;;;;;5112545;28;20423;-42
2021/05/06 09:51:55;;;;;;;0.57;0.47;;;21.90;45.30;;;;;;5113543;28;20096;-41
2021/05/06 09:54:25;;;;;;;1.00;0.60;;;21.80;45.20;;;;;;5112922;27;20466;-41
2021/05/06 09:57:06;;;;;;;0.50;0.47;;;21.90;45.20;;;;;;5112115;28;20047;-41
2021/05/06 09:59:36;;;;;;;0.90;0.60;;;21.90;45.20;;;;;;5102470;28;20051;-41
2021/05/06 10:02:08;;;;;;;0.70;0.60;;;21.90;45.20;;;;;;5111562;28;20044;-40
2021/05/06 10:04:37;;;;;;;0.85;0.70;;;21.90;45.20;;;;;;5111694;28;20051;-40
2021/05/06 10:07:06;;;;;;;0.80;0.40;;;21.90;45.20;;;;;;5113135;28;20048;-41
2021/05/06 10:10:04;;;;;;;0.80;0.80;;;21.90;45.20;;;;;;5111436;27;20384;-39
2021/05/06 10:12:35;;;;;;;1.30;0.73;;;21.90;45.20;;;;;;5111503;27;20121;-41
2021/05/06 10:15:07;;;;;;;0.80;0.70;;;21.90;45.20;;;;;;5112550;28;20055;-41
2021/05/06 10:17:34;;;;;;;0.60;0.50;;;21.90;45.20;;;;;;5111103;28;20047;-41
2021/05/06 10:20:01;;;;;;;1.33;0.50;;;21.90;45.20;;;;;;5111518;28;20051;-43
2021/05/06 10:22:29;;;;;;;0.93;0.57;;;21.90;45.10;;;;;;5112827;28;20044;-41
2021/05/06 10:25:00;;;;;;;0.75;0.52;;;21.90;45.10;;;;;;5111759;27;20126;-40
2021/05/06 10:27:27;;;;;;;0.93;0.70;;;21.90;45.10;;;;;;5112266;28;20500;-41
2021/05/06 10:29:58;;;;;;;0.70;0.50;;;21.90;45.10;;;;;;5111017;28;20510;-39
2021/05/06 10:32:27;;;;;;;0.80;0.57;;;21.90;45.10;;;;;;5110687;28;20069;-41
2021/05/06 10:34:56;;;;;;;0.85;0.57;;;21.90;45.00;;;;;;5102389;28;20470;-44
2021/05/06 10:37:27;;;;;;;0.90;0.50;;;21.90;45.00;;;;;;5111682;28;20441;-47
2021/05/06 10:39:54;;;;;;;0.90;0.63;;;21.90;45.00;;;;;;5111865;27;20433;-42
2021/05/06 10:42:27;;;;;;;1.58;0.60;;;21.90;45.00;;;;;;5101750;28;20052;-44
2021/05/06 10:44:55;;;;;;;1.15;0.57;;;21.90;45.00;;;;;;5111708;27;20052;-43
2021/05/06 10:47:48;;;;;;;0.50;0.50;;;21.90;45.00;;;;;;5111514;28;20414;-45
2021/05/06 10:50:15;;;;;;;0.75;0.60;;;21.90;45.00;;;;;;5112439;28;20062;-42
2021/05/06 10:52:49;;;;;;;1.90;0.80;;;21.90;45.00;;;;;;5110580;27;20039;-42
2021/05/06 10:55:47;;;;;;;1.20;0.60;;;21.90;45.00;;;;;;5111896;28;20450;-46
2021/05/06 10:58:26;;;;;;;0.60;0.45;;;21.90;45.00;;;;;;5111856;28;20074;-43
2021/05/06 11:01:15;;;;;;;0.40;0.40;;;21.90;45.00;;;;;;5110975;28;20124;-41
2021/05/06 11:03:42;;;;;;;0.88;0.70;;;21.90;45.00;;;;;;5109973;28;20047;-44
2021/05/06 11:06:35;;;;;;;0.80;0.60;;;21.90;45.00;;;;;;5112578;28;20154;-41
2021/05/06 11:09:22;;;;;;;0.77;0.47;;;21.90;45.00;;;;;;5099895;28;20431;-41
2021/05/06 11:12:17;;;;;;;0.63;0.60;;;21.90;45.00;;;;;;5110175;28;20043;-40
2021/05/06 11:14:59;;;;;;;1.02;0.65;;;21.90;45.00;;;;;;5111260;27;20055;-40
2021/05/06 11:17:40;;;;;;;0.63;0.40;;;21.90;45.00;;;;;;5111496;28;20048;-41
2021/05/06 11:20:10;;;;;;;0.80;0.70;;;21.90;45.00;;;;;;5110290;28;20047;-41
2021/05/06 11:22:51;;;;;;;0.60;0.40;;;21.90;45.00;;;;;;5111077;28;20040;-44
2021/05/06 11:27:57;;;;;;;0.70;0.52;;;21.90;45.00;;;;;;5110656;28;20044;-40
2021/05/06 11:30:32;;;;;;;0.80;0.60;;;21.90;45.00;;;;;;5110870;28;20433;-42
2021/05/06 11:33:26;;;;;;;0.77;0.63;;;21.90;45.00;;;;;;5111538;28;20085;-40
2021/05/06 11:36:09;;;;;;;1.50;0.70;;;21.90;45.00;;;;;;5111103;28;20043;-41
2021/05/06 11:38:46;;;;;;;0.93;0.73;;;21.90;45.00;;;;;;5110580;28;20039;-42
2021/05/06 11:41:19;;;;;;;0.82;0.60;;;21.90;45.00;;;;;;5111506;27;20474;-41
2021/05/06 11:43:51;;;;;;;1.00;0.60;;;21.90;45.00;;;;;;5110758;28;20050;-40
2021/05/06 11:46:20;;;;;;;1.20;0.60;;;21.90;45.00;;;;;;5110299;28;20048;-40
2021/05/06 11:48:52;;;;;;;0.80;0.57;;;21.90;45.00;;;;;;5111727;28;20050;-40
2021/05/06 11:51:43;;;;;;;1.42;0.75;;;21.90;45.00;;;;;;5109565;27;20130;-41
2021/05/06 11:54:18;;;;;;;0.82;0.50;;;21.90;45.00;;;;;;5110428;28;20164;-41
2021/05/06 11:56:55;;;;;;;0.80;0.60;;;21.90;45.00;;;;;;5111455;28;20419;-40
2021/05/06 11:59:25;;;;;;;0.82;0.70;;;21.90;45.00;;;;;;5110123;28;20055;-40
2021/05/06 12:01:53;;;;;;;1.00;0.80;;;21.90;45.00;;;;;;5110469;27;20044;-40
2021/05/06 12:04:26;;;;;;;0.52;0.43;;;21.90;45.00;;;;;;5111339;28;20043;-40
2021/05/06 12:06:54;;;;;;;1.02;0.43;;;21.90;45.00;;;;;;5110166;28;20043;-40
2021/05/06 12:09:26;;;;;;;0.90;0.60;;;21.90;45.60;;;;;;5110492;28;20043;-40
2021/05/06 12:11:53;;;;;;;0.90;0.68;;;21.90;44.90;;;;;;5110151;28;20101;-40
2021/05/06 12:14:37;;;;;;;0.80;0.65;;;21.90;44.90;;;;;;5108248;28;20056;-43
2021/05/06 12:17:05;;;;;;;0.50;0.45;;;21.90;45.00;;;;;;5115401;27;20096;-41
2021/05/06 12:19:41;;;;;;;0.80;0.55;;;21.90;44.90;;;;;;5114798;28;20055;-41
2021/05/06 12:22:08;;;;;;;1.33;0.60;;;22.00;45.00;;;;;;5114231;27;20410;-40
2021/05/06 12:24:44;;;;;;;0.60;0.50;;;21.90;44.90;;;;;;5114154;27;20172;-41
2021/05/06 12:27:28;;;;;;;0.50;0.40;;;21.90;44.90;;;;;;5114841;28;20043;-40
2021/05/06 12:29:58;;;;;;;1.05;0.60;;;21.90;44.90;;;;;;5113119;28;20044;-41
2021/05/06 12:32:28;;;;;;;1.73;0.50;;;21.90;44.90;;;;;;5114664;28;20050;-40
2021/05/06 12:34:57;;;;;;;0.80;0.63;;;22.00;45.00;;;;;;5114762;28;20547;-41
2021/05/06 12:37:26;;;;;;;0.80;0.50;;;21.90;44.90;;;;;;5113288;28;20062;-43
2021/05/06 12:39:53;;;;;;;0.80;0.65;;;21.90;44.90;;;;;;5114855;28;20406;-43
2021/05/06 12:42:34;;;;;;;0.63;0.43;;;22.00;45.00;;;;;;5114066;28;20055;-43
2021/05/06 12:45:03;;;;;;;0.90;0.60;;;21.90;44.90;;;;;;5113658;28;20410;-40
2021/05/06 12:47:32;;;;;;;1.05;0.70;;;22.00;45.00;;;;;;5115028;28;20056;-41
2021/05/06 12:50:28;;;;;;;0.60;0.50;;;21.90;44.90;;;;;;5113939;28;20043;-41
2021/05/06 12:52:57;;;;;;;1.42;0.70;;;21.90;44.90;;;;;;5112296;27;20048;-43
2021/05/06 12:55:24;;;;;;;0.65;0.52;;;21.90;44.90;;;;;;5114648;28;20449;-41
2021/05/06 12:58:06;;;;;;;1.38;0.55;;;21.90;44.90;;;;;;5113503;28;20097;-43
2021/05/06 13:00:35;;;;;;;0.95;0.57;;;22.00;45.00;;;;;;5112846;28;20036;-41
2021/05/06 13:03:11;;;;;;;1.42;0.63;;;22.00;45.00;;;;;;5114359;28;20043;-41
2021/05/06 13:05:45;;;;;;;0.80;0.52;;;21.90;44.90;;;;;;5113867;28;20089;-42
2021/05/06 13:08:13;;;;;;;0.60;0.60;;;22.00;45.00;;;;;;5112589;28;20048;-43
2021/05/06 13:10:42;;;;;;;0.65;0.60;;;22.00;45.00;;;;;;5114533;28;20070;-41
2021/05/06 13:13:11;;;;;;;0.80;0.50;;;22.00;45.00;;;;;;5113058;28;20052;-41
2021/05/06 13:15:49;;;;;;;0.60;0.43;;;21.90;44.90;;;;;;5113452;27;20054;-41
2021/05/06 13:18:16;;;;;;;0.98;0.40;;;22.00;44.90;;;;;;5113688;28;20128;-43
2021/05/06 13:20:43;;;;;;;0.85;0.60;;;22.00;44.90;;;;;;5112670;28;20069;-42
2021/05/06 13:23:13;;;;;;;0.88;0.43;;;22.00;44.90;;;;;;5113021;28;20047;-45
2021/05/06 13:25:46;;;;;;;0.70;0.50;;;22.00;45.00;;;;;;5112450;28;20479;-42
2021/05/06 13:28:16;;;;;;;0.60;0.50;;;22.00;44.90;;;;;;5100291;28;20044;-41
2021/05/06 13:30:45;;;;;;;1.08;0.50;;;22.00;44.90;;;;;;5114155;28;20415;-42
2021/05/06 13:33:21;;;;;;;1.02;0.70;;;22.00;44.90;;;;;;5112472;28;20052;-45
2021/05/06 13:36:07;;;;;;;0.77;0.52;;;22.00;44.90;;;;;;5112457;28;20140;-40
2021/05/06 13:38:47;;;;;;;0.52;0.43;;;21.90;44.80;;;;;;5114148;28;20044;-41
2021/05/06 13:41:15;;;;;;;0.70;0.60;;;21.90;44.80;;;;;;5113289;28;20048;-40
2021/05/06 13:43:42;;;;;;;0.57;0.40;;;22.00;44.90;;;;;;5112243;28;20156;-41
2021/05/06 13:46:09;;;;;;;1.13;0.60;;;21.90;44.80;;;;;;5113507;28;20604;-41
2021/05/06 13:48:37;;;;;;;0.80;0.50;;;22.00;44.90;;;;;;5111867;27;20039;-41
2021/05/06 13:51:05;;;;;;;0.98;0.63;;;21.90;44.80;;;;;;5113272;28;20043;-41
2021/05/06 13:53:32;;;;;;;0.60;0.60;;;22.00;44.90;;;;;;5113153;28;20044;-40
2021/05/06 13:55:58;;;;;;;0.50;0.40;;;22.00;45.00;;;;;;5101543;28;20040;-41
2021/05/06 13:58:25;;;;;;;1.27;0.70;;;22.00;44.90;;;;;;5112367;28;20048;-40
2021/05/06 14:00:51;;;;;;;0.60;0.50;;;21.90;44.90;;;;;;5112911;28;20579;-40
2021/05/06 14:03:18;;;;;;;0.88;0.60;;;22.00;44.90;;;;;;5112034;28;20043;-41
2021/05/06 14:05:45;;;;;;;0.88;0.60;;;22.00;44.90;;;;;;5112699;28;20085;-40
2021/05/06 14:08:14;;;;;;;0.95;0.50;;;21.90;44.80;;;;;;5113039;28;20036;-42
2021/05/06 14:10:42;;;;;;;0.65;0.50;;;21.90;44.80;;;;;;5111510;28;20047;-43
2021/05/06 14:13:09;;;;;;;0.57;0.50;;;22.00;45.00;;;;;;5112596;28;20055;-45
2021/05/06 14:15:35;;;;;;;0.75;0.50;;;21.90;44.80;;;;;;5111877;28;20130;-44
2021/05/06 14:18:03;;;;;;;0.70;0.57;;;21.90;44.90;;;;;;5113176;27;20547;-45
2021/05/06 14:20:30;;;;;;;0.60;0.50;;;22.00;45.00;;;;;;5100546;28;20491;-42
2021/05/06 14:22:56;;;;;;;0.57;0.45;;;22.00;45.00;;;;;;5112096;27;20118;-43
2021/05/06 14:25:23;;;;;;;1.55;0.80;;;21.90;44.90;;;;;;5112831;28;20046;-41
2021/05/06 14:27:50;;;;;;;0.50;0.50;;;22.00;45.00;;;;;;5112748;28;20073;-44
2021/05/06 14:30:17;;;;;;;0.80;0.68;;;22.00;45.00;;;;;;5111129;27;20044;-41
2021/05/06 14:32:44;;;;;;;0.60;0.47;;;21.90;44.90;;;;;;5113220;27;20093;-41
2021/05/06 14:35:11;;;;;;;0.55;0.50;;;21.90;44.90;;;;;;5112415;27;20043;-45
2021/05/06 14:37:37;;;;;;;0.77;0.63;;;22.00;45.00;;;;;;5112785;28;20055;-43
2021/05/06 14:40:06;;;;;;;0.73;0.52;;;21.90;44.90;;;;;;5111892;28;20403;-41
2021/05/06 14:42:34;;;;;;;0.80;0.52;;;21.90;44.90;;;;;;5110986;28;20058;-42
2021/05/06 14:45:02;;;;;;;0.57;0.50;;;21.90;45.00;;;;;;5111693;27;20043;-41
2021/05/06 14:47:29;;;;;;;0.75;0.50;;;21.90;44.90;;;;;;5111895;28;20048;-45
2021/05/06 14:49:57;;;;;;;0.47;0.40;;;21.90;45.00;;;;;;5110525;28;20050;-43
2021/05/06 14:52:24;;;;;;;0.80;0.60;;;21.90;44.90;;;;;;5111923;28;20047;-43
2021/05/06 14:54:51;;;;;;;0.50;0.43;;;21.90;44.90;;;;;;5132692;27;20560;-42
2021/05/06 14:57:17;;;;;;;0.85;0.50;;;21.90;44.90;;;;;;5101806;28;20051;-41
2021/05/06 14:59:44;;;;;;;0.70;0.55;;;21.90;45.00;;;;;;5112284;28;20047;-41
2021/05/06 15:02:11;;;;;;;0.70;0.50;;;21.90;44.90;;;;;;5110941;28;20044;-40
2021/05/06 15:04:38;;;;;;;1.70;0.75;;;21.90;45.00;;;;;;5111629;28;20035;-43
2021/05/06 15:07:04;;;;;;;0.80;0.57;;;21.90;45.00;;;;;;5112104;28;20073;-40
2021/05/06 15:09:31;;;;;;;1.38;0.50;;;21.90;45.00;;;;;;5110044;28;20039;-40
2021/05/06 15:11:59;;;;;;;0.68;0.50;;;21.90;44.90;;;;;;5111154;28;20071;-40
2021/05/06 15:14:27;;;;;;;0.60;0.50;;;21.90;45.00;;;;;;5110859;28;20097;-43
2021/05/06 15:16:53;;;;;;;1.33;0.63;;;22.00;45.00;;;;;;5112034;27;20195;-40
2021/05/06 15:19:20;;;;;;;0.93;0.70;;;22.00;45.00;;;;;;5112036;28;20056;-40
2021/05/06 15:21:47;;;;;;;0.88;0.50;;;22.00;45.10;;;;;;5110916;28;20039;-40
2021/05/06 15:24:13;;;;;;;1.17;0.52;;;21.90;45.00;;;;;;5112290;27;20044;-40
2021/05/06 15:26:40;;;;;;;0.70;0.57;;;21.90;45.00;;;;;;5111517;28;20499;-40
2021/05/06 15:29:07;;;;;;;0.73;0.60;;;21.90;45.00;;;;;;5110387;28;20051;-40
2021/05/06 15:31:37;;;;;;;0.80;0.50;;;21.90;45.00;;;;;;5112404;27;20429;-40
2021/05/06 15:34:04;;;;;;;0.75;0.60;;;21.90;45.00;;;;;;5111245;28;20461;-40
2021/05/06 15:36:32;;;;;;;0.68;0.50;;;21.90;45.00;;;;;;5110947;27;20510;-40
2021/05/06 15:39:05;;;;;;;1.00;0.60;;;21.90;45.00;;;;;;5111544;28;20078;-41
2021/05/06 15:41:32;;;;;;;0.60;0.40;;;21.90;45.00;;;;;;5110291;28;20044;-40
2021/05/06 15:43:59;;;;;;;0.90;0.60;;;21.90;45.00;;;;;;5100329;28;20046;-40
2021/05/06 15:46:25;;;;;;;0.55;0.50;;;21.90;45.00;;;;;;5111105;28;20051;-40
2021/05/06 15:48:52;;;;;;;0.50;0.45;;;21.90;45.00;;;;;;5110405;28;20067;-41
2021/05/06 15:51:19;;;;;;;0.60;0.50;;;21.90;45.00;;;;;;5110586;28;20097;-40
2021/05/06 15:53:45;;;;;;;0.95;0.50;;;21.90;45.00;;;;;;5110148;28;20056;-40
2021/05/06 15:56:12;;;;;;;0.85;0.50;;;21.90;45.00;;;;;;5110355;27;20058;-40
2021/05/06 15:58:40;;;;;;;0.50;0.40;;;21.90;45.00;;;;;;5111293;28;20048;-40
2021/05/06 16:01:06;;;;;;;1.58;0.60;;;21.90;45.00;;;;;;5109946;28;20427;-41
2021/05/06 16:03:36;;;;;;;0.65;0.50;;;21.90;45.00;;;;;;5100317;28;20044;-40
2021/05/06 16:06:03;;;;;;;1.15;0.70;;;21.90;45.00;;;;;;5111489;28;20570;-40
2021/05/06 16:08:29;;;;;;;1.27;0.57;;;21.90;45.00;;;;;;5109715;28;20047;-41
2021/05/06 16:10:56;;;;;;;0.85;0.60;;;21.90;45.00;;;;;;5110844;28;20406;-40
2021/05/06 16:13:24;;;;;;;0.60;0.50;;;21.90;45.00;;;;;;5098941;28;20056;-40
2021/05/06 16:15:50;;;;;;;1.20;0.55;;;21.90;45.00;;;;;;5109256;28;20051;-41
2021/05/06 16:18:20;;;;;;;0.98;0.50;;;21.90;45.00;;;;;;5111387;28;20040;-40
2021/05/06 16:20:47;;;;;;;0.55;0.50;;;21.90;45.00;;;;;;5109770;28;20067;-40
2021/05/06 16:23:15;;;;;;;0.70;0.50;;;21.90;45.00;;;;;;5110168;28;20063;-41
2021/05/06 16:25:43;;;;;;;1.15;0.60;;;21.90;45.10;;;;;;5111371;28;20047;-40